Home > Products > Valid Products > MTR

000
SAUS41 KPHI 230656
MTRACY
METAR KACY 230654Z 23010KT 10SM OVC120 07/M05 A3025 RMK AO2 SLP244
T00671050





000
SAUS41 KPHI 230655
MTR12N
METAR K12N 230654Z AUTO 00000KT 02/M06 A3016 RMK AO1 SLP223
T00221056





000
SAUS41 KPHI 230556
MTRACY
METAR KACY 230554Z 23009KT 10SM BKN120 07/M04 A3025 RMK AO2 SLP242
T00671044 10067 20050 58012





000
SAUS41 KPHI 230555
MTR12N
METAR K12N 230554Z AUTO 00000KT 03/M07 A3017 RMK AO1 SLP226
T00281067 10039 20022 58006





000
SAUS41 KPHI 230456
MTRACY
METAR KACY 230454Z 10SM BKN120 06/M03 A3027 RMK AO2 SLP249 T00561033
400671089





000
SAUS41 KPHI 230455
MTR12N
METAR K12N 230454Z AUTO 18004KT 03/M07 A3018 RMK AO1 SLP231
T00281067 400441100





000
SAUS41 KPHI 230357
MTRACY
METAR KACY 230354Z 22009KT 10SM OVC120 05/M03 A3028 RMK AO2 SLP254
T00501028





000
SAUS41 KPHI 230357
MTRACY
METAR KACY 230354Z 22009KT 10SM OVC120 05/M03 A3028 RMK AO2 SLP254
T00501028





000
SAUS41 KPHI 230355
MTR12N
METAR K12N 230354Z AUTO VRB04KT 03/M07 A3019 RMK AO1 SLP232
T00281067





000
SAUS41 KPHI 230256
MTRACY
METAR KACY 230254Z 21007KT 10SM OVC120 05/M03 A3028 RMK AO2 SLP254
T00501033 58009





000
SAUS41 KPHI 230255
MTR12N
METAR K12N 230254Z AUTO 20004KT 03/M07 A3019 RMK AO1 SLP234
T00281067 58006





000
SAUS41 KPHI 230155
MTR12N
METAR K12N 230154Z AUTO VRB05KT 03/M07 A3020 RMK AO1 SLP239
T00331072





000
SAUS41 KPHI 230155
MTRACY
METAR KACY 230154Z 22007KT 10SM OVC110 06/M04 A3030 RMK AO2 SLP260
T00561044





000
SAUS41 KPHI 230056
MTRACY
METAR KACY 230054Z 23008KT 10SM OVC095 06/M05 A3031 RMK AO2 SLP263
T00561050





000
SAUS41 KPHI 230055
MTR12N
METAR K12N 230054Z AUTO 21005KT 03/M08 A3021 RMK AO1 SLP242
T00331078





000
SAUS41 KPHI 222357
MTRACY
METAR KACY 222354Z 22009KT 10SM FEW075 OVC090 06/M06 A3031 RMK AO2
SLP263 T00561056 10067 20050 58009





000
SAUS41 KPHI 222355
MTR12N
METAR K12N 222354Z AUTO 21011G16KT 04/M08 A3021 RMK AO1 SLP244
T00391083 10044 20033 58008





000
SAUS41 KPHI 222255
MTR12N
METAR K12N 222254Z AUTO 22007KT 04/M09 A3022 RMK AO1 SLP248
T00391089





000
SAUS41 KPHI 222255
MTRACY
METAR KACY 222254Z 23007KT 10SM BKN100 06/M06 A3032 RMK AO2 SLP268
T00561056





000
SAUS41 KPHI 222157
MTRACY
METAR KACY 222154Z 22007KT 10SM BKN100 06/M04 A3033 RMK AO2 SLP269
T00561044





000
SAUS41 KPHI 222157
MTRACY
METAR KACY 222154Z 22007KT 10SM BKN100 06/M04 A3033 RMK AO2 SLP269
T00561044





000
SAUS41 KPHI 222155
MTR12N
METAR K12N 222154Z AUTO 22009KT 04/M10 A3024 RMK AO1 SLP253
T00391100





000
SAUS41 KPHI 222155
MTR12N
METAR K12N 222154Z AUTO 22009KT 04/M10 A3024 RMK AO1 SLP253
T00391100





000
SAUS41 KPHI 222057
MTRACY
METAR KACY 222054Z 21008KT 10SM CLR 07/M06 A3033 RMK AO2 SLP272
T00671061 56021





000
SAUS41 KPHI 222055
MTR12N
METAR K12N 222054Z AUTO 21007KT 04/M11 A3024 RMK AO1 SLP251
T00441111 56021





000
SAUS41 KPHI 221955
MTR12N
METAR K12N 221954Z AUTO 21009KT 04/M11 A3025 RMK AO1 SLP256
T00441111





000
SAUS41 KPHI 221955
MTRACY
METAR KACY 221954Z 23013G19KT 10SM CLR 07/M06 A3035 RMK AO2 SLP278
T00671061





000
SAUS41 KPHI 221857
MTRACY
METAR KACY 221854Z 24015G21KT 10SM CLR 07/M07 A3037 RMK AO2 SLP285
T00671072





000
SAUS41 KPHI 221855
MTR12N
METAR K12N 221854Z AUTO 22007KT 04/M11 A3027 RMK AO1 SLP264
T00391106





000
SAUS41 KPHI 221756
MTRACY
METAR KACY 221754Z 23013KT 10SM CLR 06/M08 A3040 RMK AO2 SLP294
T00611083 10067 21078 58042





000
SAUS41 KPHI 221755
MTR12N
METAR K12N 221754Z AUTO 22009KT 03/M12 A3030 RMK AO1 SLP272
T00331117 10033 21094 58038





000
SAUS41 KPHI 221656
MTRACY
METAR KACY 221654Z 25010KT 10SM CLR 06/M10 A3044 RMK AO2 SLP308
T00561100





000
SAUS41 KPHI 221655
MTR12N
METAR K12N 221654Z AUTO 22013G21KT 02/M12 A3034 RMK AO1 SLP288
T00171117





000
SAUS41 KPHI 221557
MTRACY
METAR KACY 221554Z 25009KT 10SM CLR 04/M09 A3048 RMK AO2 SLP323
T00391094





000
SAUS41 KPHI 221555
MTR12N
METAR K12N 221554Z AUTO 22012G19KT 01/M12 A3038 RMK AO1 SLP302
T00061117





000
SAUS41 KPHI 221456
MTRACY
METAR KACY 221454Z 23007KT 10SM CLR 02/M09 A3052 RMK AO2 SLP336
T00221094 58004





000
SAUS41 KPHI 221455
MTR12N
METAR K12N 221454Z AUTO VRB06KT M02/M11 A3041 RMK AO1 SLP313
T10171106 58013





000
SAUS41 KPHI 221356
MTRACY
METAR KACY 221354Z VRB03KT 10SM CLR 00/M09 A3052 RMK AO2 SLP337
T00001089





000
SAUS41 KPHI 221355
MTR12N
METAR K12N 221354Z AUTO 21006KT M04/M10 A3044 RMK AO1 SLP323
T10391100





000
SAUS41 KPHI 221256
MTRACY
METAR KACY 221254Z 00000KT 10SM CLR M04/M08 A3054 RMK AO2 SLP341
T10441083





000
SAUS41 KPHI 221255
MTR12N
METAR K12N 221254Z AUTO 19003KT M08/M11 A3046 RMK AO1 SLP330
T10831111





000
SAUS41 KPHI 221157
MTRACY
METAR KACY 221154Z AUTO 00000KT 10SM CLR M07/M12 A3053 RMK AO2
SLP339 T10721117 11044 21089 50002 TSNO





000
SAUS41 KPHI 221155
MTR12N
METAR K12N 221154Z AUTO 00000KT M09/M11 A3045 RMK AO1 SLP328
T10941111 11078 21100 58001





000
SAUS41 KPHI 221055
MTR12N
METAR K12N 221054Z AUTO 00000KT M09/M11 A3046 RMK AO1 SLP331
T10941111





000
SAUS41 KPHI 221055
MTRACY
METAR KACY 221054Z AUTO 22003KT 10SM CLR M06/M11 A3054 RMK AO2
SLP341 T10561106 TSNO





000
SAUS41 KPHI 220956
MTRACY
METAR KACY 220954Z 26003KT 10SM CLR M06/M11 A3053 RMK AO2 SLP340
T10611111





000
SAUS41 KPHI 220956
MTRACY
METAR KACY 220954Z 26003KT 10SM CLR M06/M11 A3053 RMK AO2 SLP340
T10611111





000
SAUS41 KPHI 220955
MTR12N
METAR K12N 220954Z AUTO 00000KT M09/M11 A3046 RMK AO1 SLP331
T10941111





000
SAUS41 KPHI 220955
MTR12N
METAR K12N 220954Z AUTO 00000KT M09/M11 A3046 RMK AO1 SLP331
T10941111





000
SAUS41 KPHI 220857
MTRACY
METAR KACY 220854Z 00000KT 10SM CLR M06/M11 A3053 RMK AO2 SLP338
T10611111 58004





000
SAUS41 KPHI 220855
MTR12N
METAR K12N 220854Z AUTO 00000KT M09/M11 A3045 RMK AO1 SLP328
T10891106 58006





000
SAUS41 KPHI 220756
MTRACY
METAR KACY 220754Z 00000KT 10SM CLR M05/M11 A3053 RMK AO2 SLP340
T10501111





000
SAUS41 KPHI 220755
MTR12N
METAR K12N 220754Z AUTO 00000KT M09/M11 A3046 RMK AO1 SLP331
T10891106





000
SAUS41 KPHI 220656
MTRACY
METAR KACY 220654Z 25004KT 10SM CLR M04/M11 A3054 RMK AO2 SLP342
T10441111





000
SAUS41 KPHI 220655
MTR12N
METAR K12N 220654Z AUTO 21003KT M09/M11 A3047 RMK AO1 SLP333
T10891111





000
SAUS41 KPHI 220556
MTRACY
METAR KACY 220554Z 00000KT 10SM CLR M06/M11 A3054 RMK AO2 SLP341
T10561111 11017 21067 55000





000
SAUS41 KPHI 220555
MTR12N
METAR K12N 220554Z AUTO 22003KT M08/M11 A3047 RMK AO1 SLP334
T10831106 11033 21083 50002





000
SAUS41 KPHI 220457
MTRACY
METAR KACY 220454Z 00000KT 10SM CLR M07/M12 A3054 RMK AO2 SLP341
T10671117 400281067





000
SAUS41 KPHI 220456
MTR12N
METAR K12N 220454Z AUTO 20003KT M07/M10 A3048 RMK AO1 SLP335
T10721100 400111078





000
SAUS41 KPHI 220357
MTRACY
METAR KACY 220354Z 00000KT 10SM CLR M04/M11 A3054 RMK AO2 SLP341
T10441111





000
SAUS41 KPHI 220357
MTRACY
METAR KACY 220354Z 00000KT 10SM CLR M04/M11 A3054 RMK AO2 SLP341
T10441111





000
SAUS41 KPHI 220355
MTR12N
METAR K12N 220354Z AUTO 00000KT M07/M11 A3047 RMK AO1 SLP333
T10721106





000
SAUS41 KPHI 220256
MTRACY
METAR KACY 220254Z 00000KT 10SM CLR M03/M12 A3054 RMK AO2 SLP342
T10331117 51009





000
SAUS41 KPHI 220255
MTR12N
METAR K12N 220254Z AUTO 00000KT M07/M11 A3047 RMK AO1 SLP332
T10721106 53004





000
SAUS41 KPHI 220155
MTR12N
METAR K12N 220154Z AUTO 00000KT M07/M11 A3046 RMK AO1 SLP331
T10671106





000
SAUS41 KPHI 220155
MTRACY
METAR KACY 220154Z 26005KT 10SM CLR M02/M12 A3053 RMK AO2 SLP338
T10221117





000
SAUS41 KPHI 220055
MTRACY
METAR KACY 220054Z 27004KT 10SM CLR M03/M12 A3052 RMK AO2 SLP337
T10281117





000
SAUS41 KPHI 220055
MTR12N
METAR K12N 220054Z AUTO 00000KT M06/M11 A3046 RMK AO1 SLP330
T10561106





000
SAUS41 KPHI 212356
MTR12N
METAR K12N 212354Z AUTO 00000KT M03/M13 A3045 RMK AO1 SLP327
T10281133 10011 21033 51028





000
SAUS41 KPHI 212356
MTRACY
METAR KACY 212354Z 24003KT 10SM CLR M02/M12 A3051 RMK AO2 SLP332
T10171122 10028 21017 51030





000
SAUS41 KPHI 212257
MTRACY
METAR KACY 212254Z 27005KT 10SM CLR M01/M13 A3049 RMK AO2 SLP324
T10111128





000
SAUS41 KPHI 212255
MTR12N
METAR K12N 212254Z AUTO 35004KT M02/M14 A3043 RMK AO1 SLP319
T10171139





000
SAUS41 KPHI 212155
MTR12N
METAR K12N 212154Z AUTO 35003KT M02/M14 A3040 RMK AO1 SLP309
T10171144





000
SAUS41 KPHI 212155
MTRACY
METAR KACY 212154Z 28006KT 10SM CLR 00/M13 A3045 RMK AO2 SLP312
T00001128





000
SAUS41 KPHI 212057
MTRACY
METAR KACY 212054Z 31011KT 10SM CLR 02/M13 A3042 RMK AO2 SLP302
T00171133 53023





000
SAUS41 KPHI 212055
MTR12N
METAR K12N 212054Z AUTO 36010KT 00/M14 A3037 RMK AO1 SLP296
T00001144 53024





000
SAUS41 KPHI 211957
MTRACY
METAR KACY 211954Z 30015KT 10SM CLR 02/M14 A3039 RMK AO2 SLP291
T00221139





000
SAUS41 KPHI 211955
MTR12N
METAR K12N 211954Z AUTO 32007KT 250V360 01/M14 A3034 RMK AO1 SLP285
T00061139





000
SAUS41 KPHI 211855
MTRACY
METAR KACY 211854Z 29018KT 10SM CLR 03/M14 A3036 RMK AO2 SLP283
T00281139





000
SAUS41 KPHI 211855
MTR12N
METAR K12N 211854Z AUTO VRB06KT 00/M14 A3031 RMK AO1 SLP277
T00001139





000
SAUS41 KPHI 211757
MTRACY
METAR KACY 211754Z 30016G24KT 10SM CLR 03/M14 A3035 RMK AO2 PK WND
29028/1715 SLP278 T00281139 10028 21028 51005





000
SAUS41 KPHI 211755
MTR12N
METAR K12N 211754Z AUTO 02007G20KT 350V100 00/M13 A3030 RMK AO1
SLP272 T00001128 10006 21056 51009





000
SAUS41 KPHI 211657
MTRACY
METAR KACY 211654Z 30021G28KT 10SM CLR 02/M14 A3035 RMK AO2 PK WND
29028/1653 SLP277 T00171144





000
SAUS41 KPHI 211656
MTR12N
METAR K12N 211654Z AUTO 32008G19KT 290V350 M01/M13 A3028 RMK AO1
SLP267 T10061128





000
SAUS41 KPHI 211555
MTRACY
METAR KACY 211554Z 31017G23KT 10SM FEW060 01/M14 A3034 RMK AO2 PK
WND 30027/1528 SLP276 T00111139





000
SAUS41 KPHI 211555
MTR12N
METAR K12N 211554Z AUTO 30007G14KT M01/M13 A3029 RMK AO1 SLP269
T10111133





000
SAUS41 KPHI 211555
MTRACY
METAR KACY 211554Z 31017G23KT 10SM FEW060 01/M14 A3034 RMK AO2 PK
WND 30027/1528 SLP276 T00111139





000
SAUS41 KPHI 211555
MTR12N
METAR K12N 211554Z AUTO 30007G14KT M01/M13 A3029 RMK AO1 SLP269
T10111133





000
SAUS41 KPHI 211456
MTR12N
METAR K12N 211454Z AUTO VRB06G18KT M02/M13 A3027 RMK AO1 SLP262
T10221128 51030





000
SAUS41 KPHI 211456
MTRACY
METAR KACY 211454Z 30019G24KT 10SM SCT055 00/M13 A3034 RMK AO2 PK
WND 30029/1414 SLP273 T00001128 51030





000
SAUS41 KPHI 211357
MTRACY
METAR KACY 211354Z 30019G22KT 10SM CLR M01/M12 A3032 RMK AO2 PK WND
30026/1337 SLP269 T10061122





000
SAUS41 KPHI 211355
MTR12N
METAR K12N 211354Z AUTO M03/M13 A3025 RMK AO1 SLP256 T10331128





000
SAUS41 KPHI 211257
MTRACY
METAR KACY 211254Z 29013KT 10SM CLR M02/M12 A3030 RMK AO2 SLP260
T10171122





000
SAUS41 KPHI 211255
MTR12N
METAR K12N 211254Z AUTO VRB04KT M05/M13 A3022 RMK AO1 SLP246
T10501128





000
SAUS41 KPHI 211157
MTRACY
METAR KACY 211154Z 29014KT 10SM CLR M03/M12 A3025 RMK AO2 SLP243
T10281122 11011 21028 51030





000
SAUS41 KPHI 211156
MTR12N
METAR K12N 211154Z AUTO VRB03KT M05/M13 A3018 RMK AO1 SLP232
T10501128 11039 21050 53029





000
SAUS41 KPHI 211057
MTRACY
METAR KACY 211054Z 28016G20KT 10SM CLR M02/M13 A3022 RMK AO2 SLP234
T10221128





000
SAUS41 KPHI 211055
MTR12N
METAR K12N 211054Z AUTO VRB03KT M05/M13 A3015 RMK AO1 SLP221
T10501128





000
SAUS41 KPHI 210955
MTRACY
METAR KACY 210954Z 30013G18KT 10SM CLR M02/M13 A3019 RMK AO2 SLP224
T10221128





000
SAUS41 KPHI 210955
MTR12N
METAR K12N 210954Z AUTO 00000KT M05/M13 A3011 RMK AO1 SLP207
T10501133





000
SAUS41 KPHI 210855
MTRACY
METAR KACY 210854Z 30011KT 10SM CLR M02/M12 A3016 RMK AO2 SLP213
T10171122 53024





000
SAUS41 KPHI 210855
MTR12N
METAR K12N 210854Z AUTO VRB03KT M04/M13 A3009 RMK AO1 SLP201
T10441133 51019





000
SAUS41 KPHI 210757
MTRACY
METAR KACY 210754Z AUTO 31011KT 10SM CLR M02/M12 A3013 RMK AO2
SLP202 T10171117 TSNO





000
SAUS41 KPHI 210756
MTR12N
METAR K12N 210754Z AUTO 00000KT M04/M14 A3008 RMK AO1 SLP195
T10441139





000
SAUS41 KPHI 210656
MTRACY
METAR KACY 210654Z AUTO 31009KT 10SM CLR M02/M12 A3011 RMK AO2
SLP196 T10221117 TSNO





000
SAUS41 KPHI 210655
MTR12N
METAR K12N 210654Z AUTO VRB03KT M04/M14 A3005 RMK AO1 SLP185
T10391139





000
SAUS41 KPHI 210557
MTRACY
METAR KACY 210554Z AUTO 31009KT 10SM CLR M02/M12 A3009 RMK AO2
SLP189 T10171122 10039 21017 51021 TSNO





000
SAUS41 KPHI 210555
MTR12N
METAR K12N 210554Z AUTO VRB03KT M04/M14 A3003 RMK AO1 SLP181
T10391144 10006 21039 52013





000
SAUS41 KPHI 210455
MTRACY
METAR KACY 210454Z AUTO 31012KT 10SM CLR 00/M12 A3007 RMK AO2 SLP184
T00001122 401061006 TSNO





000
SAUS41 KPHI 210455
MTR12N
METAR K12N 210454Z AUTO 00000KT M03/M14 A3002 RMK AO1 SLP177
T10331144 400561061





000
SAUS41 KPHI 210355
MTR12N
METAR K12N 210354Z AUTO VRB04KT M03/M14 A3000 RMK AO1 SLP172
T10281144





000
SAUS41 KPHI 210355
MTRACY
METAR KACY 210354Z AUTO 32013G20KT 10SM CLR 01/M11 A3005 RMK AO2
SLP175 T00111111 TSNO





000
SAUS41 KPHI 210255
MTR12N
METAR K12N 210254Z AUTO M02/M14 A2999 RMK AO1 SLP168 T10221139 53020





000
SAUS41 KPHI 210255
MTRACY
METAR KACY 210254Z 10SM FEW070 02/M10 A3003 RMK AO2 SLP168 T00221100
53027





000
SAUS41 KPHI 210156
MTRACY
METAR KACY 210154Z 31008KT 10SM BKN070 02/M06 A2999 RMK AO2 SLP157
T00221056





000
SAUS41 KPHI 210155
MTR12N
METAR K12N 210154Z AUTO VRB04KT M02/M13 A2997 RMK AO1 SLP161
T10171128





000
SAUS41 KPHI 210056
MTR12N
METAR K12N 210054Z AUTO VRB06KT M01/M12 A2995 RMK AO1 SLP155
T10061117





000
SAUS41 KPHI 210055
MTRACY
METAR KACY 210054Z 31008KT 10SM FEW075 02/M04 A2997 RMK AO2 SLP148
T00221039





000
SAUS41 KPHI 202357
MTRACY
METAR KACY 202354Z 32004KT 10SM BKN075 02/M04 A2995 RMK AO2 SLP141
T00171039 10106 20017 53021





000
SAUS41 KPHI 202355
MTR12N
METAR K12N 202354Z AUTO VRB03KT 01/M11 A2993 RMK AO1 SLP148
T00061106 10056 20006 53029





000
SAUS41 KPHI 202255
MTR12N
METAR K12N 202254Z AUTO 01/M11 A2990 RMK AO1 SLP137 T00111111





000
SAUS41 KPHI 202255
MTRACY
METAR KACY 202254Z 00000KT 10SM CLR 05/M04 A2992 RMK AO2 SLP133
T00501039





000
SAUS41 KPHI 202156
MTRACY
METAR KACY 202154Z 26006KT 10SM CLR 07/M04 A2990 RMK AO2 SLP126
T00721039





000
SAUS41 KPHI 202155
MTR12N
METAR K12N 202154Z AUTO VRB03KT 03/M10 A2987 RMK AO1 SLP127
T00281100





000
SAUS41 KPHI 202057
MTRACY
METAR KACY 202054Z 26009KT 10SM CLR 09/M04 A2988 RMK AO2 SLP120
T00941039 55008





000
SAUS41 KPHI 202055
MTR12N
METAR K12N 202054Z AUTO 23009G20KT 180V290 04/M11 A2985 RMK AO1
SLP118 T00441106 53004





000
SAUS41 KPHI 201957
MTRACY
METAR KACY 201954Z 25009KT 10SM FEW060 10/M04 A2987 RMK AO2 SLP116
T01001044





000
SAUS41 KPHI 201955
MTR12N
METAR K12N 201954Z AUTO 25009G14KT 200V300 05/M09 A2983 RMK AO1
SLP112 T00501094





000
SAUS41 KPHI 201855
MTR12N
METAR K12N 201854Z AUTO 23007KT 200V300 04/M08 A2983 RMK AO1 PK WND
20027/1830 SLP112 T00441083





000
SAUS41 KPHI 201855
MTRACY
METAR KACY 201854Z 25011KT 10SM CLR 10/M04 A2988 RMK AO2 SLP120
T01001039





000
SAUS41 KPHI 201757
MTRACY
METAR KACY 201754Z 25013G19KT 10SM CLR 09/M04 A2991 RMK AO2 SLP128
T00941039 10100 20022 57025





000
SAUS41 KPHI 201755
MTR12N
METAR K12N 201754Z AUTO 22009G21KT 05/M06 A2983 RMK AO1 SLP113
T00501061 10050 21050 58027





000
SAUS41 KPHI 201655
MTR12N
METAR K12N 201654Z AUTO 21011G17KT 04/M07 A2986 RMK AO1 SLP123
T00391067





000
SAUS41 KPHI 201655
MTRACY
METAR KACY 201654Z 25010G18KT 10SM CLR 08/M04 A2993 RMK AO2 SLP134
T00831044





000
SAUS41 KPHI 201556
MTRACY
METAR KACY 201554Z 25011G19KT 10SM SCT075 09/M04 A2997 RMK AO2
SLP147 T00891044





000
SAUS41 KPHI 201555
MTR12N
METAR K12N 201554Z AUTO 21007KT 03/M07 A2990 RMK AO1 SLP136
T00281072





000
SAUS41 KPHI 201456
MTRACY
METAR KACY 201454Z 25009KT 10SM CLR 07/M04 A2998 RMK AO2 SLP153
T00721044 58003





000
SAUS41 KPHI 201455
MTR12N
METAR K12N 201454Z AUTO VRB03KT 01/M08 A2992 RMK AO1 SLP141
T00111078 58000





000
SAUS41 KPHI 201356
MTRACY
METAR KACY 201354Z 24009G14KT 10SM CLR 05/M06 A2998 RMK AO2 SLP153
T00501056





000
SAUS41 KPHI 201355
MTR12N
METAR K12N 201354Z AUTO 18003KT M02/M08 A2992 RMK AO1 SLP144
T10221078





000
SAUS41 KPHI 201255
MTR12N
METAR K12N 201254Z AUTO 00000KT M04/M07 A2991 RMK AO1 SLP143
T10441067





000
SAUS41 KPHI 201255
MTRACY
METAR KACY 201254Z 25006KT 10SM CLR 03/M06 A3000 RMK AO2 SLP160
T00331061





000
SAUS41 KPHI 201156
MTRACY
METAR KACY 201154Z 24008KT 10SM CLR 02/M06 A2999 RMK AO2 SLP156
T00221061 10033 20022 58003





000
SAUS41 KPHI 201155
MTR12N
METAR K12N 201154Z AUTO 00000KT M04/M07 A2992 RMK AO1 SLP145
T10441072 11028 21061 56012





000
SAUS41 KPHI 201056
MTRACY
METAR KACY 201054Z 25008KT 10SM CLR 03/M07 A3000 RMK AO2 SLP158
T00281067





000
SAUS41 KPHI 201055
MTR12N
METAR K12N 201054Z AUTO 00000KT M04/M08 A2993 RMK AO1 SLP147
T10391078





000
SAUS41 KPHI 200957
MTRACY
METAR KACY 200954Z 24008KT 10SM CLR 03/M07 A2999 RMK AO2 SLP157
T00331067





000
SAUS41 KPHI 200957
MTRACY
METAR KACY 200954Z 24008KT 10SM CLR 03/M07 A2999 RMK AO2 SLP157
T00331067





000
SAUS41 KPHI 200955
MTR12N
METAR K12N 200954Z AUTO 22003KT M03/M08 A2993 RMK AO1 SLP150
T10331078





000
SAUS41 KPHI 200955
MTR12N
METAR K12N 200954Z AUTO 22003KT M03/M08 A2993 RMK AO1 SLP150
T10331078





000
SAUS41 KPHI 200855
MTRACY
METAR KACY 200854Z 23011KT 10SM CLR 03/M07 A3000 RMK AO2 SLP158
T00331072 58021





000
SAUS41 KPHI 200855
MTR12N
METAR K12N 200854Z AUTO 00000KT M04/M08 A2995 RMK AO1 SLP156
T10441078 58010





000
SAUS41 KPHI 200756
MTRACY
METAR KACY 200754Z AUTO 23011G17KT 10SM CLR 03/M07 A3002 RMK AO2
SLP167 T00331067 TSNO





000
SAUS41 KPHI 200755
MTR12N
METAR K12N 200754Z AUTO 00000KT M06/M09 A2997 RMK AO1 SLP162
T10561094





    US Dept of Commerce
    National Oceanic and Atmospheric Administration
    National Weather Service
    1325 East West Highway
    Silver Spring, MD 20910
    Page Author: NWS Internet Services Team
Disclaimer
Information Quality
Credits
Glossary
Privacy Policy
Freedom of Information Act (FOIA)
About Us
Career Opportunities